Portada
METAR-TAF:

METAR-TAF

Aeroports :

Aoba Island, Vanuatu

latitud: 15-18-24S, longitud: 167-58-02E, altitud: 51 m

Observació

L'informe es va fer fa 7 hores i 6 minuts, a les 12:00 UTC
Vent 4 kt del Sud/Sud-Est
Temperatura
Pressió 1016 hPa

METAR: NVSG 021200Z 16004KT //// // NCD ///// Q1016

Hora: 06:06 (19:06 UTC)

Pronòstic

L'informe es va fer fa 3 hores i 6 minuts, a les 16:00 UTC
Pronòstic vàlid del 02 a les 18 UTC al 03 a les 18 UTC
Vent 5 kt del Sud
Visibilitat 10 km o més
Cel ennuvolat a una alçada de 2000 ft
Probabilitat 40%
entre IN i TE UTC
Visibilitat: 9000 m
Cel ennuvolat a una alçada de 1800 ft
xàfecs de pluja

TAF: NVSG 021600Z 0218/0318 17005KT 9999 BKN020 PROB40 INTER 0218/0224 9000 -SHRA BKN018

Observacions i pronòstics meteorològics de més de 4000 aeroports (METAR i TAF).

Les estacions disponibles són els punts grocs i vermells al mapa.

Posi el ratolí al punt desitjat per veure el nom de l'estació.

Feu clic per veure les observacions i els pronòstics meteorològics.

Per canviar el mapa: feu clic els botons verds amb una creu de color negre per apropar; al botó verd amb un guió per allunyar la imatge; o en les fletxes verdes per a mapes adjacents.


METAR-TAF: